Date,TemperatureHighF,TemperatureAvgF,TemperatureLowF,DewpointHighF,DewpointAvgF,DewpointLowF,HumidityHigh,HumidityAvg,HumidityLow,PressureMaxIn,PressureMinIn,WindSpeedMaxMPH,WindSpeedAvgMPH,GustSpeedMaxMPH,PrecipitationSumIn
2013-1-1,54,48,43,52,44,37,92,86,79,29.68,29.43,14,4,14,0.11
2013-1-2,43,40,37,37,33,30,82,78,72,29.77,29.66,11,3,11,0.00
2013-1-3,52,42,30,33,31,25,84,65,42,29.89,29.76,14,3,14,0.01
2013-1-4,51,45,41,38,34,32,83,66,49,29.97,29.81,11,1,11,0.06
2013-1-5,48,44,42,43,40,35,86,83,68,29.85,29.71,5,0,5,0.09
2013-1-6,58,45,37,43,37,31,91,75,43,29.81,29.73,12,2,12,0.01
2013-1-7,56,44,31,38,34,26,87,69,45,29.80,29.57,8,1,8,0.00
2013-1-8,62,54,46,58,49,37,91,85,70,29.60,29.41,11,2,11,0.50
2013-1-9,64,62,60,61,59,57,91,90,88,29.56,29.35,11,2,18,0.48
2013-1-10,69,62,48,60,53,42,91,75,45,29.51,29.38,22,3,22,0.02
2013-1-11,72,58,42,56,48,39,87,71,44,29.50,29.33,11,2,11,0.00
2013-1-12,75,69,50,69,63,45,93,82,71,29.37,29.16,31,7,31,0.60
2013-1-13,50,42,38,46,36,32,89,79,65,29.64,29.27,17,5,17,0.60
2013-1-14,43,38,34,33,29,25,80,72,62,29.73,29.59,21,6,21,0.02
2013-1-15,34,33,32,30,28,25,86,81,72,29.64,29.51,12,2,12,0.22
2013-1-16,49,39,34,31,26,16,85,63,27,29.70,29.57,13,2,13,0.02
2013-1-17,61,43,27,36,29,20,78,60,36,29.93,29.69,14,2,14,0.01
2013-1-18,62,46,32,39,32,26,81,62,27,30.00,29.81,8,1,8,0.00
2013-1-19,60,46,32,44,36,26,85,69,51,29.81,29.65,10,1,10,0.00
2013-1-20,68,50,37,52,42,33,90,76,50,29.73,29.57,10,1,10,0.00
2013-1-21,71,54,41,52,44,37,87,71,46,29.69,29.59,14,2,14,0.00
2013-1-22,67,51,38,48,40,31,78,66,47,29.79,29.68,9,2,9,0.00
2013-1-23,74,62,44,55,50,39,87,66,41,29.81,29.65,15,4,15,0.00
2013-1-24,71,62,54,60,56,49,89,81,65,29.73,29.58,14,3,14,0.00
2013-1-25,78,66,55,59,56,49,83,71,48,29.65,29.51,16,5,16,0.00
2013-1-26,66,57,54,58,52,48,87,82,70,29.65,29.57,8,2,8,0.00
2013-1-27,77,64,51,61,56,48,90,76,55,29.62,29.50,20,5,20,0.00
2013-1-28,80,71,66,62,60,58,83,70,50,29.58,29.43,22,8,22,0.00
2013-1-29,76,70,58,65,62,52,84,76,60,29.43,29.03,31,10,31,0.26
2013-1-30,58,50,38,54,34,24,84,55,32,29.64,29.18,20,5,20,0.02
2013-1-31,65,48,32,34,29,25,76,53,23,29.75,29.63,19,2,19,0.00
2013-2-1,67,53,41,44,38,33,75,59,39,29.83,29.67,10,2,10,0.00
2013-2-2,72,58,44,53,45,37,80,64,48,29.74,29.62,12,3,12,0.00
2013-2-3,71,55,41,40,36,24,75,52,20,29.77,29.53,10,2,10,0.00
2013-2-4,62,55,48,56,48,38,88,78,65,29.53,29.31,9,2,9,0.01
2013-2-5,73,64,59,62,57,54,93,80,58,29.49,29.36,8,1,8,0.00
2013-2-6,63,61,59,60,57,55,90,87,81,29.53,29.39,11,2,11,0.19
2013-2-7,67,60,54,59,56,51,93,86,74,29.44,29.35,10,1,10,0.00
2013-2-8,63,56,47,55,49,43,92,76,61,29.65,29.43,13,3,13,0.02
2013-2-9,62,53,44,58,48,40,90,84,70,29.63,29.33,16,4,16,0.00
2013-2-10,68,64,56,64,54,44,91,73,43,29.47,29.23,18,3,18,0.61
2013-2-11,57,53,50,49,47,43,87,79,60,29.61,29.46,10,2,10,0.21
2013-2-12,56,52,49,51,48,44,91,86,78,29.48,29.27,9,2,9,0.31
2013-2-13,54,47,37,44,38,31,86,73,57,29.58,29.39,14,3,14,0.04
2013-2-14,65,48,32,42,35,28,86,65,30,29.61,29.50,8,1,8,0.00
2013-2-15,60,47,37,41,36,24,88,66,45,29.79,29.55,17,4,17,0.02
2013-2-16,56,44,32,33,27,22,76,52,30,29.86,29.69,14,3,14,0.01
2013-2-17,71,53,34,45,37,27,78,58,28,29.69,29.49,22,6,22,0.00
2013-2-18,71,60,53,63,52,41,87,74,62,29.51,29.28,26,7,26,0.41
2013-2-19,63,53,43,41,34,23,75,50,22,29.74,29.51,11,3,11,0.00
2013-2-20,55,50,45,38,35,30,75,57,40,29.64,29.32,13,4,13,0.05
2013-2-21,72,59,50,64,49,37,92,71,45,29.34,29.09,15,3,15,0.30
2013-2-22,57,51,45,46,44,38,92,79,65,29.51,29.32,14,4,14,0.01
2013-2-23,67,51,38,45,39,32,81,64,40,29.49,29.37,9,3,9,0.00
2013-2-24,70,55,39,47,42,35,87,64,40,29.43,29.16,10,2,10,0.00
2013-2-25,72,59,45,62,44,28,86,60,24,29.17,28.89,24,6,24,0.02
2013-2-26,60,50,43,39,35,32,76,58,41,29.38,29.09,24,6,24,0.00
2013-2-27,63,50,38,42,34,25,86,57,27,29.60,29.35,17,3,17,0.00
2013-2-28,57,46,37,33,29,24,73,53,29,29.72,29.58,13,4,13,0.00
2013-3-1,60,47,37,33,29,23,70,53,25,29.72,29.59,16,4,16,0.00
2013-3-2,51,42,34,31,24,18,69,52,28,29.81,29.67,17,4,17,0.00
2013-3-3,69,50,29,41,31,23,77,52,25,29.71,29.43,21,5,21,0.00
2013-3-4,79,64,49,58,52,41,85,66,44,29.44,29.17,37,10,37,0.00
2013-3-5,65,60,52,58,48,31,81,66,33,29.63,29.22,24,8,24,0.14
2013-4-15,91,84,74,70,67,65,78,58,44,29.92,29.92,18,7,18,0.00
2013-4-16,90,79,73,71,68,66,84,71,49,29.92,29.92,18,6,18,0.00
2013-4-20,75,67,52,43,39,32,69,38,23,29.92,29.92,17,4,17,0.00
2013-4-21,76,61,43,51,45,39,87,60,33,29.92,29.92,16,2,16,0.00
2013-4-22,82,66,48,58,51,44,85,61,38,29.92,29.92,14,2,14,0.00
2013-4-23,85,68,58,65,59,53,89,73,50,29.92,29.92,15,4,15,0.00
2013-4-24,66,61,50,46,44,42,76,55,45,29.92,29.92,15,5,15,0.45
2013-4-25,69,57,52,48,46,42,80,67,39,29.92,29.92,16,4,16,0.05
2013-4-26,83,72,62,66,60,50,71,64,55,29.92,29.92,19,6,19,0.00
2013-4-27,83,74,69,69,67,65,88,78,57,29.92,29.92,12,2,12,0.47
2013-4-28,74,67,65,67,64,62,90,88,76,29.92,29.92,4,0,4,0.00
2013-4-30,84,76,67,68,65,63,88,70,55,29.92,29.92,12,2,12,0.04
2013-5-1,86,73,66,68,65,62,93,76,52,29.92,29.92,9,2,9,0.01
2013-5-2,74,64,47,64,57,42,87,80,68,29.92,29.92,14,4,14,0.32
2013-5-3,64,50,43,43,38,26,86,67,25,32.19,29.92,21,4,21,0.97
2013-5-4,75,55,41,43,38,31,83,57,22,29.92,29.92,17,3,17,0.05
2013-5-5,67,54,46,43,40,38,78,59,38,29.92,29.92,16,4,16,0.11
2013-5-15,70,69,68,65,64,63,87,85,83,29.92,29.92,11,3,11,1.92
2013-5-16,87,76,65,70,66,62,91,73,54,29.92,29.92,19,6,19,0.07
2013-5-17,74,73,72,68,68,67,84,83,80,29.92,29.92,10,4,10,0.00
2013-5-18,95,87,77,74,71,68,74,58,48,29.92,29.92,17,7,17,0.00
2013-5-19,94,82,72,71,68,65,85,66,46,29.92,29.92,24,8,24,0.00
2013-5-20,91,83,74,74,71,68,82,67,55,29.92,29.92,19,7,19,0.00
2013-5-21,89,77,68,72,68,60,90,74,53,29.92,29.92,17,5,17,0.35
2013-5-22,87,81,0,70,68,65,89,65,54,29.92,29.92,5,1,5,0.04
2013-5-27,77,77,76,68,68,67,76,73,71,29.92,29.92,11,6,11,0.02
2013-5-28,90,81,74,68,66,64,80,61,44,29.92,29.92,17,6,17,0.00
2013-5-29,75,75,74,67,67,67,77,77,76,29.92,29.92,7,4,8,0.00
2013-5-30,87,79,75,72,71,70,86,78,61,29.92,29.92,19,7,19,0.00
2013-5-31,96,84,77,76,73,71,84,70,49,29.92,29.92,22,7,22,0.00
2013-6-1,97,84,78,74,73,71,83,69,47,29.92,29.92,17,6,17,0.00
2013-6-2,84,78,72,73,67,63,82,69,55,29.92,29.92,12,2,13,1.16
2013-6-3,73,68,65,66,63,61,88,83,75,29.92,29.92,2,0,2,0.00
2013-6-4,72,71,71,64,64,64,79,78,77,29.92,29.92,0,0,0,0.00
2013-6-6,71,70,69,68,66,65,90,89,87,29.92,29.92,9,2,9,0.97
2013-6-7,85,74,67,67,64,59,93,72,44,29.92,29.92,9,1,9,0.01
2013-6-8,90,78,66,71,65,62,89,67,42,29.92,29.92,11,2,11,0.00
2013-6-9,92,78,70,75,69,66,88,75,51,29.92,29.92,24,2,24,0.00
2013-6-10,95,82,70,73,70,66,90,70,46,29.92,29.92,8,2,8,0.00
2013-6-11,97,84,74,76,73,70,89,71,47,29.92,29.92,11,2,11,0.00
2013-6-12,97,85,74,76,73,69,89,69,45,29.92,29.92,10,3,10,0.00
2013-6-13,99,86,75,75,73,71,89,67,42,29.92,29.92,8,2,8,0.00
2013-6-14,99,87,76,78,74,71,86,66,44,29.92,29.92,6,1,6,0.00
2013-6-15,98,86,76,77,73,70,85,66,46,29.92,29.92,14,2,14,0.02
2013-6-16,99,86,77,76,72,69,86,66,42,29.92,29.92,11,3,11,0.00
2013-6-17,94,84,77,75,73,68,86,69,49,29.92,29.92,19,3,19,0.01
2013-6-18,91,82,74,76,72,68,90,75,52,29.92,29.92,11,3,11,0.92
2013-6-19,90,80,72,77,72,68,93,79,59,29.92,29.92,12,1,12,0.00
2013-6-20,96,85,75,76,73,70,89,69,46,29.92,29.92,14,3,14,0.00
2013-6-21,84,78,75,76,72,71,89,84,72,29.92,29.92,8,0,8,0.00
2013-6-22,98,87,76,75,72,70,84,64,43,29.92,29.92,11,3,11,0.00
2013-6-23,98,86,76,76,72,70,84,65,43,29.92,29.92,11,3,11,0.00
2013-6-24,96,86,78,78,73,71,83,66,47,29.92,29.92,13,4,13,0.01
2013-6-25,85,80,77,74,73,72,86,79,69,29.92,29.92,11,3,11,0.00
2013-6-26,100,88,77,76,73,71,86,64,41,29.92,29.92,15,5,15,0.00
2013-6-27,101,88,76,75,72,69,86,62,39,29.92,29.92,11,3,11,0.00
2013-6-28,104,88,76,74,72,70,83,61,38,29.92,29.92,11,3,11,0.00
2013-6-29,102,90,76,74,69,62,81,53,31,29.92,29.92,14,3,14,0.01
2013-6-30,96,83,69,65,60,56,76,48,27,29.92,29.92,13,2,13,0.02
2013-7-1,92,80,68,64,60,56,76,53,32,29.92,29.92,11,2,11,0.00
2013-7-2,96,80,67,66,62,56,79,55,29,29.92,29.92,11,1,11,0.00
2013-7-3,94,80,68,67,63,58,83,57,35,29.92,29.92,8,1,8,0.00
2013-7-4,96,82,68,68,64,60,83,56,34,29.92,29.92,7,1,7,0.00
2013-7-5,98,83,68,69,63,58,83,54,33,29.92,29.92,8,2,8,0.00
2013-7-6,98,85,71,74,67,61,88,58,34,29.92,29.92,9,2,9,0.00
2013-7-7,102,84,73,75,72,67,89,68,41,29.92,29.92,21,3,21,0.00
2013-7-8,96,84,75,78,72,70,88,70,46,29.92,29.92,18,3,18,0.02
2013-7-9,102,87,73,77,72,66,91,63,34,29.92,29.92,15,3,15,0.00
2013-7-10,103,89,76,76,72,68,87,60,37,29.92,29.92,13,3,13,0.00
2013-7-11,103,85,79,75,72,70,80,66,39,29.92,29.92,10,2,10,0.00
2013-7-12,101,87,74,75,72,70,89,64,39,29.92,29.92,8,2,8,0.00
2013-7-13,100,86,76,72,63,43,74,49,16,29.92,29.92,10,2,10,0.00
2013-7-14,87,80,74,72,68,63,88,68,56,29.92,29.92,8,1,8,0.04
2013-7-15,90,77,72,74,71,67,95,82,56,29.92,29.92,18,1,18,1.23
2013-7-16,93,80,72,76,72,69,95,78,48,29.92,29.92,12,1,12,0.44
2013-7-17,91,81,74,77,74,72,95,80,55,29.92,29.92,10,1,10,1.25
2013-7-18,83,80,78,75,74,73,86,83,77,29.92,29.92,1,0,2,0.00
2013-7-19,86,79,74,75,72,68,92,80,56,29.92,29.92,5,1,5,0.37
2013-7-20,96,80,72,76,72,68,92,79,44,29.92,29.92,12,1,12,0.58
2013-7-21,96,82,73,77,73,70,91,76,49,29.92,29.92,15,3,15,0.01
2013-7-22,98,85,77,77,75,73,90,73,48,29.92,29.92,13,4,13,0.00
2013-7-23,98,87,78,76,73,70,88,67,44,29.92,29.92,15,4,15,0.00
2013-7-24,94,84,77,79,75,72,86,74,53,29.92,29.92,14,3,14,0.00
2013-7-25,96,86,75,76,73,70,94,68,45,29.92,29.92,8,1,8,0.00
2013-7-26,94,86,78,77,73,70,88,68,49,29.92,29.92,14,3,14,0.00
2013-7-27,86,80,74,76,72,68,93,78,60,29.92,29.92,12,3,12,0.14
2013-7-28,96,83,68,77,72,66,94,70,46,29.92,29.92,11,2,11,0.00
2013-7-29,85,80,77,77,74,73,90,83,76,29.92,29.92,12,2,12,0.00
2013-7-30,100,88,78,76,72,68,85,62,36,29.92,29.92,15,5,15,0.00
2013-7-31,100,88,78,76,73,70,85,63,41,29.92,29.92,11,4,11,0.00
2013-8-1,102,88,79,76,73,70,84,64,41,29.92,29.92,6,2,6,0.00
2013-8-2,104,90,77,76,73,70,86,60,36,29.92,29.92,9,2,9,0.00
2013-8-3,101,89,77,76,72,68,86,59,36,29.92,29.92,11,3,11,0.00
2013-8-4,101,90,77,77,73,69,87,62,40,29.92,29.92,11,2,11,0.00
2013-8-5,103,90,78,76,72,69,86,59,35,29.92,29.92,14,4,14,0.00
2013-8-6,104,90,78,75,73,71,85,60,36,29.92,29.92,14,4,14,0.00
2013-8-7,104,91,79,76,73,68,87,60,34,29.92,29.92,13,5,14,0.00
2013-8-8,104,91,78,76,72,64,85,57,31,29.92,29.92,14,4,14,0.00
2013-8-9,103,90,76,76,72,66,85,58,32,29.92,29.92,10,2,10,0.00
2013-8-10,104,89,80,78,75,72,85,66,38,29.92,29.92,17,2,17,0.11
2013-8-11,100,85,74,83,74,70,93,72,39,29.92,29.92,13,2,13,0.47
2013-8-12,100,87,76,77,73,71,92,66,41,29.92,29.92,13,3,13,0.00
2013-8-13,103,88,78,77,73,67,87,65,34,29.92,29.92,13,3,13,0.05
2013-8-14,93,81,77,77,75,74,92,82,56,29.92,29.92,17,1,17,0.07
2013-8-15,92,81,70,75,65,59,92,61,37,29.92,29.92,11,2,11,0.01
2013-8-16,77,71,68,61,60,59,77,69,55,29.92,29.92,4,1,4,0.00
2013-8-17,91,79,67,66,60,57,84,56,33,29.92,29.92,14,4,14,0.02
2013-8-18,96,81,67,70,65,61,90,61,34,29.92,29.92,10,2,10,0.00
2013-8-19,98,84,73,70,65,61,79,56,33,29.92,29.92,10,1,10,0.00
2013-8-20,98,86,72,72,66,60,84,55,29,29.92,29.92,10,2,10,0.00
2013-8-21,99,86,73,74,70,66,87,61,35,29.92,29.92,7,1,7,0.00
2013-8-22,102,87,75,76,71,68,86,60,36,29.92,29.92,10,2,10,0.00
2013-8-23,101,88,76,75,70,66,85,58,33,29.92,29.92,12,2,12,0.00
2013-8-24,86,81,77,74,72,70,84,74,64,29.92,29.92,2,0,2,0.00
2013-8-25,98,86,75,73,70,67,86,60,39,29.92,29.92,12,3,12,0.00
2013-8-26,95,82,74,74,72,69,91,74,46,29.92,29.92,11,2,11,0.00
2013-8-27,98,84,72,74,71,68,94,68,42,29.92,29.92,11,1,11,0.00
2013-8-28,100,87,75,72,69,65,85,59,33,29.92,29.92,9,1,9,0.00
2013-8-29,103,89,76,73,68,64,82,53,32,29.92,29.92,10,2,10,0.00
2013-8-30,104,90,77,77,70,64,89,57,31,29.92,29.92,11,2,11,0.00
2013-8-31,104,90,76,76,72,69,86,58,35,29.92,29.92,12,3,12,0.00
2013-9-1,104,91,79,74,71,66,78,55,34,29.92,29.92,13,3,13,0.00
2013-9-2,98,88,78,76,71,66,84,59,37,29.92,29.92,12,3,12,0.00
2013-9-3,104,87,76,75,71,68,86,62,34,29.92,29.92,14,2,14,0.00
2013-9-4,101,83,75,78,74,70,90,75,42,29.92,29.92,20,2,20,0.50
2013-9-5,99,86,74,77,73,67,95,68,37,29.92,29.92,16,2,16,0.00
2013-9-6,102,88,75,77,71,64,92,63,31,29.92,29.92,10,2,10,0.00
2013-9-7,101,86,74,77,72,66,91,66,35,29.92,29.92,22,2,22,0.00
2013-9-8,98,85,71,74,69,64,92,63,35,29.92,29.92,8,2,8,0.00
2013-9-9,99,85,72,75,68,62,89,60,31,29.92,29.92,12,2,12,0.00
2013-9-10,97,85,72,75,69,65,91,62,37,29.92,29.92,14,2,14,0.00
2013-9-11,98,85,75,74,70,68,85,63,41,29.92,29.92,11,1,11,0.00
2013-9-12,97,84,73,74,70,65,90,65,38,29.92,29.92,8,1,8,0.00
2013-9-13,100,84,72,71,68,65,85,62,33,29.92,29.92,11,2,11,0.00
2013-9-14,95,83,72,71,66,60,78,56,39,29.92,29.92,11,2,11,0.00
2013-9-15,98,84,71,70,64,58,66,52,34,29.92,29.92,8,2,8,0.00
2013-9-16,98,86,74,75,70,65,88,60,35,29.92,29.92,9,1,9,0.00
2013-9-17,85,84,84,69,69,68,61,59,58,29.92,29.92,2,0,2,0.00
2013-9-18,99,87,77,75,70,65,80,58,34,29.92,29.92,11,2,11,0.00
2013-9-19,96,84,76,75,73,69,88,70,45,29.92,29.92,18,2,18,0.00
2013-9-20,81,76,71,76,74,70,97,92,83,29.92,29.92,11,3,11,2.50
2013-9-21,84,74,68,70,65,56,97,75,54,29.92,29.92,16,4,16,0.02
2013-9-22,84,71,60,58,55,48,84,60,31,29.92,29.92,11,2,11,0.02
2013-9-23,88,75,61,69,61,55,84,64,44,29.92,29.92,8,1,8,0.00
2013-9-24,76,74,71,68,67,66,84,79,73,29.92,29.92,6,0,6,0.00
2013-9-25,93,80,63,64,58,50,89,51,25,29.92,29.92,13,1,13,0.01
2013-9-26,94,77,61,68,63,57,91,65,34,29.92,29.92,9,1,9,0.00
2013-9-27,92,79,65,74,67,63,94,69,43,29.92,29.92,13,2,13,0.00
2013-9-28,91,81,73,79,72,68,93,76,53,32.19,29.92,12,2,12,0.09
2013-9-29,82,77,74,77,75,73,98,92,83,29.92,29.92,11,1,11,1.67
2013-9-30,86,79,74,75,74,72,97,84,67,29.92,29.92,8,1,8,0.00
2013-10-1,89,79,74,76,74,71,96,84,62,29.92,29.92,14,2,14,0.00
2013-10-2,89,81,74,75,73,69,95,78,56,29.92,29.92,11,2,11,0.00
2013-10-3,90,81,76,76,74,71,92,79,57,29.92,29.92,11,2,11,0.00
2013-10-4,91,81,73,77,74,70,92,79,54,29.92,29.92,13,2,13,0.00
2013-10-5,90,79,64,78,71,54,94,78,55,29.92,29.92,14,3,14,0.05
2013-10-6,78,66,57,55,48,38,74,55,24,29.92,29.92,11,3,11,0.04
2013-10-7,79,64,51,54,46,37,86,58,23,29.92,29.92,10,1,10,0.00
2013-10-8,78,64,50,57,53,47,93,70,44,29.92,29.92,7,1,7,0.00
2013-10-9,82,66,52,60,56,51,95,73,44,29.92,29.92,7,1,7,0.00
2013-10-10,83,69,55,66,60,53,96,75,51,29.92,29.92,9,2,9,0.00
2013-10-11,87,75,63,71,67,61,97,78,55,29.92,29.92,11,3,11,0.00
2013-10-12,85,75,69,77,73,68,98,91,74,29.92,29.92,15,2,15,0.35
2013-10-13,76,72,68,71,70,68,99,93,83,29.92,29.92,8,1,8,0.00
2013-10-14,84,75,70,74,70,68,96,86,64,29.92,29.92,10,2,10,0.00
2013-10-15,87,77,69,74,72,68,97,85,59,29.92,29.92,14,3,14,1.02
2013-10-16,69,66,61,68,65,60,99,97,94,29.92,29.92,8,2,8,0.39
2013-10-17,72,63,55,60,55,48,97,78,46,29.92,29.92,10,2,10,0.01
2013-10-18,70,61,51,60,56,50,99,85,64,29.92,29.92,8,1,8,0.00
2013-10-19,66,58,49,59,50,40,96,75,39,29.92,29.92,16,3,16,0.20
2013-10-20,72,56,42,54,48,41,97,77,42,29.92,29.92,10,1,10,0.00
2013-10-21,79,64,51,68,59,49,97,85,63,29.92,29.92,10,1,10,0.00
2013-10-22,71,63,54,65,56,44,96,79,41,29.92,29.92,11,3,11,0.01
2013-10-23,79,63,50,59,52,48,95,72,34,29.92,29.92,6,1,7,0.01
2013-10-24,82,65,51,60,54,49,94,72,36,29.92,29.92,9,1,9,0.00
2013-10-25,68,59,51,57,50,44,87,71,51,29.92,29.92,10,3,10,0.00
2013-10-26,78,63,48,62,54,44,88,73,54,29.92,29.92,15,3,15,0.00
2013-10-27,73,65,58,64,61,8,99,88,12,29.92,29.92,13,2,13,0.54
2013-10-28,78,67,58,69,63,56,99,89,71,29.92,29.92,8,1,8,0.00
2013-10-29,83,73,67,72,68,65,99,85,61,29.92,29.92,18,3,18,0.00
2013-10-30,72,70,66,72,68,65,99,96,89,29.92,29.92,12,2,12,1.78
2013-10-31,76,70,56,74,65,49,99,88,42,29.92,29.92,12,3,12,0.51
2013-11-1,75,61,49,60,54,47,98,80,46,29.92,29.92,10,2,10,0.01
2013-11-2,68,59,49,58,45,29,94,64,23,29.92,29.92,18,3,18,0.34
2013-11-3,66,53,42,49,45,40,95,76,48,29.92,29.92,9,2,9,0.00
2013-11-4,61,54,51,54,50,47,89,84,80,29.92,29.92,5,1,5,0.00
2013-11-5,82,74,65,60,56,52,77,56,37,29.92,29.92,4,2,4,0.00
2013-11-6,71,58,48,69,55,43,95,88,78,29.92,29.92,13,4,13,0.18
2013-11-7,62,51,41,47,42,37,94,74,43,29.92,29.92,17,4,17,0.07
2013-11-8,63,53,43,50,47,42,98,81,52,29.92,29.92,7,0,7,0.00
2013-11-9,58,54,52,55,51,48,93,89,79,29.92,29.92,4,0,4,0.08
2013-11-10,69,57,50,53,50,48,98,81,52,29.92,29.92,10,2,10,0.00
2013-11-11,70,57,44,56,51,44,99,82,52,29.92,29.92,7,1,7,0.00
2013-11-12,62,51,39,56,46,2,99,84,66,29.92,29.92,20,4,20,0.04
2013-11-13,51,42,38,34,31,24,78,67,36,29.92,29.92,11,3,11,0.00
2013-11-14,60,48,41,43,36,32,83,66,37,31.24,29.92,9,1,9,0.00
2013-11-15,73,60,48,64,55,42,96,86,70,29.92,29.92,11,2,11,0.05
2013-11-16,76,67,55,72,65,54,99,95,86,29.92,29.92,15,4,15,0.04
2013-11-17,83,74,66,74,71,65,98,89,66,29.92,29.92,18,4,18,0.01
2013-11-18,75,66,59,65,47,36,99,54,26,29.92,29.92,11,3,11,0.00
2013-11-19,66,57,50,44,38,31,66,50,28,29.92,29.92,11,2,11,0.00
2013-11-20,70,57,46,50,42,36,71,59,39,29.92,29.92,11,1,11,0.00
2013-11-21,74,67,58,69,63,47,94,86,64,29.92,29.92,11,2,11,0.00
2013-11-22,71,55,48,70,54,47,99,98,93,29.92,29.92,13,3,13,0.84
2013-11-23,48,48,48,47,47,47,99,99,99,29.92,29.92,17,6,17,0.43
2013-11-24,48,48,48,47,47,47,99,99,99,29.92,29.92,17,6,17,0.31
2013-11-25,48,48,48,47,47,47,99,99,99,29.92,29.92,16,3,16,0.86
2013-11-26,48,48,48,47,47,47,99,99,99,29.92,29.92,14,2,14,0.53
2013-11-27,48,48,48,47,47,47,99,99,99,32.19,29.92,12,2,12,0.01
2013-11-28,48,48,48,47,47,47,99,99,99,29.92,29.92,11,1,11,0.00
2013-11-29,48,48,48,47,47,47,99,99,99,29.92,29.92,8,1,8,0.00
2013-11-30,59,52,32,50,47,-28,99,87,6,33.70,29.92,46,1,46,1.51
2013-12-1,66,59,53,58,53,48,86,81,73,29.92,29.92,11,3,11,0.00
2013-12-2,71,61,53,60,56,50,94,86,66,29.92,29.92,10,2,10,0.00
2013-12-3,80,65,52,63,57,50,95,78,48,29.92,29.92,17,3,17,0.00
2013-12-4,80,70,32,68,64,-25,93,83,7,33.70,29.92,20,6,20,2.79
2013-12-5,71,51,37,68,47,35,97,86,70,29.92,29.92,14,4,14,0.08
2013-12-6,40,37,32,39,36,30,98,94,88,29.92,29.92,15,5,15,0.27
2013-12-7,34,33,32,31,29,28,92,85,77,29.92,29.92,15,5,15,0.05
2013-12-8,41,37,32,39,34,29,96,89,82,29.92,29.92,4,1,4,0.02
2013-12-9,40,38,36,40,37,34,97,95,91,29.92,29.92,14,4,14,0.22
2013-12-10,44,36,28,34,28,22,91,75,55,29.92,29.92,14,3,14,0.04
2013-12-11,54,40,28,37,32,24,88,73,48,29.92,29.92,10,2,10,0.00
2013-12-12,52,41,32,34,30,26,82,66,39,29.92,29.92,12,3,12,0.00
2013-12-13,48,42,36,47,38,29,96,84,67,29.92,29.92,8,1,8,0.37
2013-12-14,51,47,37,50,43,29,96,86,72,29.92,29.92,16,4,17,0.28
2013-12-15,54,40,30,36,30,26,85,70,42,29.92,29.92,10,2,10,0.01
2013-12-16,63,45,30,42,35,26,87,71,38,29.92,29.92,11,2,11,0.00
2013-12-17,68,48,33,47,38,28,88,72,38,29.92,29.92,9,1,9,0.00
2013-12-18,69,52,36,48,42,32,92,72,39,29.92,29.92,14,3,14,0.00
2013-12-19,73,62,50,64,56,47,93,83,67,29.92,29.92,26,6,26,0.00
2013-12-20,76,71,68,69,67,64,93,85,75,29.92,29.92,19,7,19,0.02
2013-12-21,71,65,56,69,63,55,96,93,86,29.92,29.92,19,6,19,0.96
2013-12-22,56,47,33,55,43,28,96,85,71,29.92,29.92,14,3,14,0.21
2013-12-23,50,38,30,32,28,25,84,70,44,29.92,29.92,14,4,14,0.00
2013-12-24,54,39,28,37,30,23,87,73,44,29.92,29.92,9,1,9,0.00
2013-12-25,59,45,29,41,34,25,89,67,34,29.92,29.92,7,1,7,0.00
2013-12-26,59,48,39,42,39,35,89,72,49,29.92,29.92,8,1,8,0.00
2013-12-27,56,46,38,41,38,35,94,74,46,29.92,29.92,9,1,9,0.00
2013-12-28,58,48,40,41,37,28,89,68,35,29.92,29.92,4,0,4,0.00
2013-12-29,60,48,35,49,40,31,89,76,58,29.92,29.92,11,1,11,0.02
2013-12-30,44,39,36,35,30,28,75,71,66,29.92,29.92,10,3,10,0.00
2013-12-31,48,40,34,34,32,28,86,74,58,29.92,29.92,6,1,6,0.00
2014-1-1,62,49,34,54,43,29,93,82,70,29.92,29.92,16,3,16,0.00
2014-1-2,58,42,32,55,26,18,89,56,33,29.92,29.92,17,5,17,0.87